Time,TemperatureF,DewpointF,PressureIn,WindDirection,WindDirectionDegrees,WindSpeedMPH,WindSpeedGustMPH,Humidity,HourlyPrecipIn,Conditions,Clouds,dailyrainin,SoftwareType,DateUTC
2013-09-15 00:00:00,51.0,50.7,30.02,WSW,251,0.0,0.0,99,0.00,CLR,,0.01,WeatherDisplay:10.37,2013-09-15 04:00:00,
2013-09-15 00:01:00,51.0,50.7,30.02,WSW,251,0.0,0.0,99,0.00,RA,,0.00,WeatherDisplay:10.37,2013-09-15 04:01:00,
2013-09-15 00:02:00,51.0,50.7,30.02,WSW,251,0.0,0.0,99,0.00,RA,,0.00,WeatherDisplay:10.37,2013-09-15 04:02:00,
2013-09-15 00:07:00,50.7,50.7,30.01,WSW,251,0.0,0.0,100,0.00,RA,,0.00,WeatherDisplay:10.37,2013-09-15 04:07:00,
2013-09-15 00:12:00,50.6,50.6,30.01,WSW,251,1.2,1.2,100,0.00,CLR,,0.00,WeatherDisplay:10.37,2013-09-15 04:12:00,
2013-09-15 00:17:00,50.4,50.4,30.01,WSW,251,0.0,0.7,100,0.00,CLR,,0.00,WeatherDisplay:10.37,2013-09-15 04:17:00,
2013-09-15 00:22:00,50.3,50.3,30.01,WSW,251,0.0,0.0,100,0.00,CLR,,0.00,WeatherDisplay:10.37,2013-09-15 04:22:00,
2013-09-15 00:27:00,50.1,50.1,30.02,WSW,251,0.0,0.1,100,0.00,CLR,,0.00,WeatherDisplay:10.37,2013-09-15 04:27:00,
2013-09-15 00:32:00,50.0,50.0,30.02,WSW,251,0.0,0.0,100,0.00,CLR,,0.00,WeatherDisplay:10.37,2013-09-15 04:32:00,
2013-09-15 00:37:00,49.8,49.8,30.03,WSW,251,0.0,0.0,100,0.00,CLR,,0.00,WeatherDisplay:10.37,2013-09-15 04:37:00,
2013-09-15 00:42:00,49.7,49.7,30.03,WSW,251,0.0,0.0,100,0.00,CLR,,0.00,WeatherDisplay:10.37,2013-09-15 04:42:00,
2013-09-15 00:47:00,49.5,49.5,30.03,WSW,251,0.0,0.0,100,0.00,CLR,,0.00,WeatherDisplay:10.37,2013-09-15 04:47:00,
2013-09-15 00:52:00,49.4,49.4,30.03,WSW,251,0.0,0.0,100,0.00,CLR,,0.00,WeatherDisplay:10.37,2013-09-15 04:52:00,
2013-09-15 00:57:00,49.4,49.4,30.03,WSW,251,0.0,0.0,100,0.00,CLR,,0.00,WeatherDisplay:10.37,2013-09-15 04:57:00,
2013-09-15 01:02:00,49.2,49.2,30.03,WSW,251,0.0,0.0,100,0.00,CLR,,0.00,WeatherDisplay:10.37,2013-09-15 05:02:00,
2013-09-15 01:07:00,49.1,49.1,30.03,WSW,251,0.0,0.0,100,0.00,CLR,,0.00,WeatherDisplay:10.37,2013-09-15 05:07:00,
2013-09-15 01:12:00,49.1,49.1,30.03,WSW,251,0.0,0.0,100,0.00,CLR,,0.00,WeatherDisplay:10.37,2013-09-15 05:12:00,
2013-09-15 01:17:00,48.9,48.9,30.03,WSW,251,0.0,0.0,100,0.00,CLR,,0.00,WeatherDisplay:10.37,2013-09-15 05:17:00,
2013-09-15 01:22:00,48.8,48.8,30.03,WSW,251,0.0,0.0,100,0.00,CLR,,0.00,WeatherDisplay:10.37,2013-09-15 05:22:00,
2013-09-15 01:27:00,48.8,48.8,30.03,WSW,251,0.0,0.0,100,0.00,CLR,,0.00,WeatherDisplay:10.37,2013-09-15 05:27:00,
2013-09-15 01:32:00,48.8,48.8,30.03,WSW,251,0.0,0.0,100,0.00,CLR,,0.00,WeatherDisplay:10.37,2013-09-15 05:32:00,
2013-09-15 01:37:00,48.6,48.6,30.04,WSW,251,2.3,2.3,100,0.00,CLR,,0.00,WeatherDisplay:10.37,2013-09-15 05:37:00,
2013-09-15 01:42:00,48.5,48.5,30.04,WSW,251,1.2,0.0,100,0.00,CLR,,0.00,WeatherDisplay:10.37,2013-09-15 05:42:00,
2013-09-15 01:47:00,48.5,48.5,30.04,WSW,251,2.3,2.3,100,0.00,CLR,,0.00,WeatherDisplay:10.37,2013-09-15 05:47:00,
2013-09-15 01:52:00,48.5,48.5,30.04,WSW,251,0.0,0.0,100,0.00,CLR,,0.00,WeatherDisplay:10.37,2013-09-15 05:52:00,
2013-09-15 01:57:00,48.5,48.5,30.04,WSW,251,2.3,2.3,100,0.00,CLR,,0.00,WeatherDisplay:10.37,2013-09-15 05:57:00,
2013-09-15 02:02:00,48.5,48.5,30.04,WSW,251,1.2,1.3,100,0.00,CLR,,0.00,WeatherDisplay:10.37,2013-09-15 06:02:00,
2013-09-15 02:07:00,48.5,48.5,30.04,WSW,251,1.2,0.0,100,0.00,CLR,,0.00,WeatherDisplay:10.37,2013-09-15 06:07:00,
2013-09-15 02:12:00,48.5,48.5,30.04,WSW,251,1.2,0.0,100,0.00,CLR,,0.00,WeatherDisplay:10.37,2013-09-15 06:12:00,
2013-09-15 02:17:00,48.3,48.3,30.04,WSW,251,0.0,0.0,100,0.00,CLR,,0.00,WeatherDisplay:10.37,2013-09-15 06:17:00,
2013-09-15 02:22:00,48.3,48.3,30.04,WSW,251,0.0,0.0,100,0.00,CLR,,0.00,WeatherDisplay:10.37,2013-09-15 06:22:00,
2013-09-15 02:27:00,48.3,48.3,30.03,WSW,251,0.0,0.0,100,0.00,CLR,,0.00,WeatherDisplay:10.37,2013-09-15 06:27:00,
2013-09-15 02:32:00,48.3,48.3,30.03,WSW,251,0.0,0.0,100,0.00,CLR,,0.00,WeatherDisplay:10.37,2013-09-15 06:32:00,
2013-09-15 02:37:00,48.2,48.2,30.04,WSW,251,0.0,0.0,100,0.00,CLR,,0.00,WeatherDisplay:10.37,2013-09-15 06:37:00,
2013-09-15 02:42:00,48.0,48.0,30.04,WSW,251,0.0,0.0,100,0.00,CLR,,0.00,WeatherDisplay:10.37,2013-09-15 06:42:00,
2013-09-15 02:47:00,48.0,48.0,30.04,WSW,251,0.0,0.0,100,0.00,CLR,,0.00,WeatherDisplay:10.37,2013-09-15 06:47:00,
2013-09-15 02:52:00,47.9,47.9,30.04,WSW,251,0.0,0.0,100,0.00,CLR,,0.00,WeatherDisplay:10.37,2013-09-15 06:52:00,
2013-09-15 02:57:00,48.0,48.0,30.04,WSW,251,0.0,0.0,100,0.00,CLR,,0.00,WeatherDisplay:10.37,2013-09-15 06:57:00,
2013-09-15 03:02:00,48.0,48.0,30.05,WSW,251,0.0,0.0,100,0.00,CLR,,0.00,WeatherDisplay:10.37,2013-09-15 07:02:00,
2013-09-15 03:07:00,48.0,48.0,30.05,WSW,251,0.0,0.0,100,0.00,CLR,,0.00,WeatherDisplay:10.37,2013-09-15 07:07:00,
2013-09-15 03:12:00,48.0,48.0,30.05,WSW,251,0.0,0.0,100,0.00,CLR,,0.00,WeatherDisplay:10.37,2013-09-15 07:12:00,
2013-09-15 03:17:00,48.0,48.0,30.05,WSW,251,0.0,0.0,100,0.00,CLR,,0.00,WeatherDisplay:10.37,2013-09-15 07:17:00,
2013-09-15 03:22:00,47.9,47.9,30.05,WSW,251,0.0,0.0,100,0.00,CLR,,0.00,WeatherDisplay:10.37,2013-09-15 07:22:00,
2013-09-15 03:27:00,47.8,47.8,30.05,WSW,251,0.0,0.0,100,0.00,CLR,,0.00,WeatherDisplay:10.37,2013-09-15 07:27:00,
2013-09-15 03:32:00,47.6,47.6,30.06,WSW,251,0.0,0.0,100,0.00,CLR,,0.00,WeatherDisplay:10.37,2013-09-15 07:32:00,
2013-09-15 03:37:00,47.6,47.6,30.06,WSW,251,0.0,0.0,100,0.00,CLR,,0.00,WeatherDisplay:10.37,2013-09-15 07:37:00,
2013-09-15 03:42:00,47.6,47.6,30.06,WSW,251,0.0,0.0,100,0.00,CLR,,0.00,WeatherDisplay:10.37,2013-09-15 07:42:00,
2013-09-15 03:47:00,47.5,47.5,30.06,WSW,251,0.0,0.0,100,0.00,CLR,,0.00,WeatherDisplay:10.37,2013-09-15 07:47:00,
2013-09-15 03:52:00,47.3,47.3,30.06,WSW,251,0.0,0.0,100,0.00,CLR,,0.00,WeatherDisplay:10.37,2013-09-15 07:52:00,
2013-09-15 03:57:00,47.2,47.2,30.06,WSW,251,0.0,0.0,100,0.00,CLR,,0.00,WeatherDisplay:10.37,2013-09-15 07:57:00,
2013-09-15 04:03:00,47.0,47.0,30.06,WSW,251,0.0,0.0,100,0.00,CLR,,0.00,WeatherDisplay:10.37,2013-09-15 08:03:00,
2013-09-15 04:08:00,47.0,47.0,30.06,WSW,251,0.0,0.0,100,0.00,CLR,,0.00,WeatherDisplay:10.37,2013-09-15 08:08:00,
2013-09-15 04:13:00,47.2,47.2,30.06,WSW,251,0.0,0.6,100,0.00,CLR,,0.00,WeatherDisplay:10.37,2013-09-15 08:13:00,
2013-09-15 04:18:00,47.3,47.3,30.06,WSW,251,3.5,3.5,100,0.00,CLR,,0.00,WeatherDisplay:10.37,2013-09-15 08:18:00,
2013-09-15 04:23:00,47.3,47.3,30.06,WSW,251,2.3,2.3,100,0.00,CLR,,0.00,WeatherDisplay:10.37,2013-09-15 08:23:00,
2013-09-15 04:28:00,47.3,47.3,30.07,WSW,251,2.6,2.7,100,0.00,CLR,,0.00,WeatherDisplay:10.37,2013-09-15 08:28:00,
2013-09-15 04:33:00,47.5,47.5,30.07,WSW,250,2.3,2.3,100,0.00,CLR,,0.00,WeatherDisplay:10.37,2013-09-15 08:33:00,
2013-09-15 04:38:00,47.5,47.5,30.07,WSW,250,1.2,1.2,100,0.00,CLR,,0.00,WeatherDisplay:10.37,2013-09-15 08:38:00,
2013-09-15 04:43:00,47.5,47.5,30.08,WSW,250,2.3,2.3,100,0.00,CLR,,0.00,WeatherDisplay:10.37,2013-09-15 08:43:00,
2013-09-15 04:48:00,47.3,47.3,30.07,WSW,250,3.5,3.5,100,0.00,CLR,,0.00,WeatherDisplay:10.37,2013-09-15 08:48:00,
2013-09-15 04:53:00,47.3,47.3,30.07,WSW,250,1.2,1.2,100,0.00,CLR,,0.00,WeatherDisplay:10.37,2013-09-15 08:53:00,
2013-09-15 04:58:00,47.3,47.3,30.08,WSW,250,1.2,0.0,100,0.00,CLR,,0.00,WeatherDisplay:10.37,2013-09-15 08:58:00,
2013-09-15 05:03:00,47.3,47.3,30.08,WSW,250,2.3,2.3,100,0.00,CLR,,0.00,WeatherDisplay:10.37,2013-09-15 09:03:00,
2013-09-15 05:08:00,47.2,47.2,30.08,WSW,250,2.3,2.3,100,0.00,CLR,,0.00,WeatherDisplay:10.37,2013-09-15 09:08:00,
2013-09-15 05:13:00,47.2,47.2,30.08,WSW,250,0.0,0.0,100,0.00,CLR,,0.00,WeatherDisplay:10.37,2013-09-15 09:13:00,
2013-09-15 05:18:00,47.2,47.2,30.08,WSW,250,0.0,0.0,100,0.00,CLR,,0.00,WeatherDisplay:10.37,2013-09-15 09:18:00,
2013-09-15 05:23:00,47.0,47.0,30.08,WSW,250,0.0,0.0,100,0.00,CLR,,0.00,WeatherDisplay:10.37,2013-09-15 09:23:00,
2013-09-15 05:28:00,46.9,46.9,30.08,WSW,250,0.0,0.0,100,0.00,CLR,,0.00,WeatherDisplay:10.37,2013-09-15 09:28:00,
2013-09-15 05:33:00,46.6,46.6,30.08,WSW,250,0.0,0.0,100,0.00,CLR,,0.00,WeatherDisplay:10.37,2013-09-15 09:33:00,
2013-09-15 05:38:00,46.4,46.4,30.09,WSW,250,0.0,0.0,100,0.00,CLR,,0.00,WeatherDisplay:10.37,2013-09-15 09:38:00,
2013-09-15 05:43:00,46.3,46.3,30.09,WSW,250,0.0,0.0,100,0.00,CLR,,0.00,WeatherDisplay:10.37,2013-09-15 09:43:00,
2013-09-15 05:48:00,46.3,46.3,30.09,WSW,250,2.6,2.6,100,0.00,CLR,,0.00,WeatherDisplay:10.37,2013-09-15 09:48:00,
2013-09-15 05:53:00,46.3,46.3,30.09,WSW,250,3.9,3.9,100,0.00,CLR,,0.00,WeatherDisplay:10.37,2013-09-15 09:53:00,
2013-09-15 05:58:00,46.6,46.6,30.09,WSW,250,2.3,2.3,100,0.00,CLR,,0.00,WeatherDisplay:10.37,2013-09-15 09:58:00,
2013-09-15 06:03:00,46.9,46.9,30.09,WSW,250,2.3,2.3,100,0.00,CLR,,0.00,WeatherDisplay:10.37,2013-09-15 10:03:00,
2013-09-15 06:08:00,47.0,47.0,30.09,WSW,237,2.6,2.6,100,0.00,CLR,,0.00,WeatherDisplay:10.37,2013-09-15 10:08:00,
2013-09-15 06:13:00,47.2,47.2,30.09,SW,233,2.3,2.3,100,0.00,CLR,,0.00,WeatherDisplay:10.37,2013-09-15 10:13:00,
2013-09-15 06:18:00,47.3,47.3,30.10,SW,233,2.6,2.6,100,0.00,CLR,,0.00,WeatherDisplay:10.37,2013-09-15 10:18:00,
2013-09-15 06:23:00,47.3,47.3,30.10,SW,233,3.5,3.5,100,0.00,CLR,,0.00,WeatherDisplay:10.37,2013-09-15 10:23:00,
2013-09-15 06:28:00,47.5,47.5,30.10,SW,233,2.3,2.3,100,0.00,CLR,,0.00,WeatherDisplay:10.37,2013-09-15 10:28:00,
2013-09-15 06:33:00,47.5,47.5,30.10,SW,233,2.3,2.3,100,0.00,CLR,,0.00,WeatherDisplay:10.37,2013-09-15 10:33:00,
2013-09-15 06:38:00,47.5,47.5,30.10,SSW,208,3.5,3.5,100,0.00,CLR,,0.00,WeatherDisplay:10.37,2013-09-15 10:38:00,
2013-09-15 06:43:00,47.5,47.5,30.10,SSW,213,2.3,2.3,100,0.00,CLR,,0.00,WeatherDisplay:10.37,2013-09-15 10:43:00,
2013-09-15 06:48:00,47.6,47.6,30.11,SW,215,2.6,2.6,100,0.00,CLR,,0.00,WeatherDisplay:10.37,2013-09-15 10:48:00,
2013-09-15 06:53:00,47.6,47.6,30.11,SW,215,1.2,1.2,100,0.00,CLR,,0.00,WeatherDisplay:10.37,2013-09-15 10:53:00,
2013-09-15 06:58:00,47.8,47.8,30.11,SW,215,1.2,1.2,100,0.00,CLR,,0.00,WeatherDisplay:10.37,2013-09-15 10:58:00,
2013-09-15 07:03:00,47.8,47.8,30.11,SW,215,2.3,2.3,100,0.00,CLR,,0.00,WeatherDisplay:10.37,2013-09-15 11:03:00,
2013-09-15 07:08:00,47.9,47.9,30.11,SW,215,1.3,1.3,100,0.00,CLR,,0.00,WeatherDisplay:10.37,2013-09-15 11:08:00,
2013-09-15 07:13:00,47.9,47.9,30.11,SW,215,1.2,1.2,100,0.00,CLR,,0.00,WeatherDisplay:10.37,2013-09-15 11:13:00,
2013-09-15 07:18:00,47.9,47.9,30.11,SW,215,0.0,0.0,100,0.00,CLR,,0.00,WeatherDisplay:10.37,2013-09-15 11:18:00,
2013-09-15 07:23:00,48.0,48.0,30.11,SW,215,0.0,0.0,100,0.00,CLR,,0.00,WeatherDisplay:10.37,2013-09-15 11:23:00,
2013-09-15 07:28:00,48.2,48.2,30.11,SW,215,0.0,0.0,100,0.00,CLR,,0.00,WeatherDisplay:10.37,2013-09-15 11:28:00,
2013-09-15 07:33:00,48.3,48.3,30.11,SW,215,0.0,0.0,100,0.00,CLR,,0.00,WeatherDisplay:10.37,2013-09-15 11:33:00,
2013-09-15 07:38:00,48.6,48.6,30.12,SW,215,0.0,0.0,100,0.00,CLR,,0.00,WeatherDisplay:10.37,2013-09-15 11:38:00,
2013-09-15 07:43:00,48.9,48.9,30.11,SW,215,0.0,0.0,100,0.00,CLR,,0.00,WeatherDisplay:10.37,2013-09-15 11:43:00,
2013-09-15 07:48:00,49.4,49.4,30.11,SW,215,1.2,1.2,100,0.00,CLR,,0.00,WeatherDisplay:10.37,2013-09-15 11:48:00,
2013-09-15 07:53:00,49.5,49.5,30.11,SW,215,1.2,0.0,100,0.00,CLR,,0.00,WeatherDisplay:10.37,2013-09-15 11:53:00,
2013-09-15 07:58:00,49.7,49.7,30.11,SW,215,1.2,0.0,100,0.00,CLR,,0.00,WeatherDisplay:10.37,2013-09-15 11:58:00,
2013-09-15 08:03:00,50.0,50.0,30.12,WSW,256,1.2,1.2,100,0.00,CLR,,0.00,WeatherDisplay:10.37,2013-09-15 12:03:00,
2013-09-15 08:08:00,50.4,50.4,30.12,WSW,251,5.8,5.8,100,0.00,CLR,,0.00,WeatherDisplay:10.37,2013-09-15 12:08:00,
2013-09-15 08:13:00,50.9,50.9,30.12,WSW,247,1.2,0.0,100,0.00,CLR,,0.00,WeatherDisplay:10.37,2013-09-15 12:13:00,
2013-09-15 08:18:00,51.5,51.0,30.12,WSW,248,3.5,3.5,98,0.00,CLR,,0.00,WeatherDisplay:10.37,2013-09-15 12:18:00,
2013-09-15 08:23:00,51.9,51.1,30.11,WSW,243,0.0,0.0,97,0.00,CLR,,0.00,WeatherDisplay:10.37,2013-09-15 12:23:00,
2013-09-15 08:28:00,52.8,51.4,30.11,WSW,248,0.0,0.0,95,0.00,CLR,,0.00,WeatherDisplay:10.37,2013-09-15 12:28:00,
2013-09-15 08:33:00,53.4,51.4,30.11,WSW,248,0.0,0.0,93,0.00,CLR,,0.00,WeatherDisplay:10.37,2013-09-15 12:33:00,
2013-09-15 08:38:00,54.3,51.4,30.11,SE,143,1.2,0.0,90,0.00,CLR,,0.00,WeatherDisplay:10.37,2013-09-15 12:38:00,
2013-09-15 08:43:00,55.1,51.9,30.12,SE,144,2.3,2.3,89,0.00,CLR,,0.00,WeatherDisplay:10.37,2013-09-15 12:43:00,
2013-09-15 08:48:00,55.3,50.9,30.12,SE,144,1.2,1.2,85,0.00,CLR,,0.00,WeatherDisplay:10.37,2013-09-15 12:48:00,
2013-09-15 08:53:00,55.9,50.5,30.12,NW,306,1.2,1.2,82,0.00,CLR,,0.00,WeatherDisplay:10.37,2013-09-15 12:53:00,
2013-09-15 08:58:00,56.7,51.9,30.12,NW,306,1.2,1.2,84,0.00,CLR,,0.00,WeatherDisplay:10.37,2013-09-15 12:58:00,
2013-09-15 09:03:00,57.1,52.0,30.12,SSW,212,1.2,1.2,83,0.00,CLR,,0.00,WeatherDisplay:10.37,2013-09-15 13:03:00,
2013-09-15 09:08:00,57.7,52.9,30.12,SSW,212,0.0,0.0,84,0.00,CLR,,0.00,WeatherDisplay:10.37,2013-09-15 13:08:00,
2013-09-15 09:13:00,58.2,52.7,30.12,SSW,212,1.2,0.0,82,0.00,CLR,,0.00,WeatherDisplay:10.37,2013-09-15 13:13:00,
2013-09-15 09:18:00,58.3,52.2,30.13,South,191,2.3,2.3,80,0.00,CLR,,0.00,WeatherDisplay:10.37,2013-09-15 13:18:00,
2013-09-15 09:23:00,58.5,52.0,30.12,SSW,210,1.3,1.4,79,0.00,CLR,,0.00,WeatherDisplay:10.37,2013-09-15 13:23:00,
2013-09-15 09:28:00,58.9,52.4,30.12,SW,216,3.5,3.5,79,0.00,CLR,,0.00,WeatherDisplay:10.37,2013-09-15 13:28:00,
2013-09-15 09:33:00,59.3,52.4,30.13,SSW,193,6.9,6.9,78,0.00,CLR,,0.00,WeatherDisplay:10.37,2013-09-15 13:33:00,
2013-09-15 09:38:00,59.7,52.1,30.12,SSW,193,6.9,6.9,76,0.00,CLR,,0.00,WeatherDisplay:10.37,2013-09-15 13:38:00,
2013-09-15 09:43:00,59.7,51.4,30.13,SW,220,1.2,1.2,74,0.00,CLR,,0.00,WeatherDisplay:10.37,2013-09-15 13:43:00,
2013-09-15 09:48:00,59.6,52.0,30.12,SSW,196,2.3,2.3,76,0.00,CLR,,0.00,WeatherDisplay:10.37,2013-09-15 13:48:00,
2013-09-15 09:53:00,59.7,51.8,30.12,SSW,196,0.0,0.0,75,0.00,CLR,,0.00,WeatherDisplay:10.37,2013-09-15 13:53:00,
2013-09-15 09:58:00,60.0,50.6,30.12,SW,217,8.1,8.1,71,0.00,CLR,,0.00,WeatherDisplay:10.37,2013-09-15 13:58:00,
2013-09-15 10:04:00,60.2,49.6,30.12,SSE,158,3.5,3.5,68,0.00,CLR,,0.00,WeatherDisplay:10.37,2013-09-15 14:04:00,
2013-09-15 10:09:00,60.2,48.8,30.13,East,95,1.2,0.0,66,0.00,CLR,,0.00,WeatherDisplay:10.37,2013-09-15 14:09:00,
2013-09-15 10:14:00,60.4,51.3,30.12,WSW,243,0.0,0.0,72,0.00,CLR,,0.00,WeatherDisplay:10.37,2013-09-15 14:14:00,
2013-09-15 10:19:00,60.7,51.6,30.12,SW,226,2.3,2.3,72,0.00,CLR,,0.00,WeatherDisplay:10.37,2013-09-15 14:19:00,
2013-09-15 10:24:00,60.8,51.3,30.12,NNE,16,1.2,1.2,71,0.00,CLR,,0.00,WeatherDisplay:10.37,2013-09-15 14:24:00,
2013-09-15 10:29:00,61.5,51.2,30.12,NNE,20,0.0,0.0,69,0.00,CLR,,0.00,WeatherDisplay:10.37,2013-09-15 14:29:00,
2013-09-15 10:34:00,61.8,51.1,30.12,NE,45,2.3,0.0,68,0.00,CLR,,0.00,WeatherDisplay:10.37,2013-09-15 14:34:00,
2013-09-15 10:39:00,62.1,52.2,30.12,NE,45,1.2,0.0,70,0.00,CLR,,0.00,WeatherDisplay:10.37,2013-09-15 14:39:00,
2013-09-15 10:44:00,62.6,51.9,30.12,SW,223,0.0,0.0,68,0.00,CLR,,0.00,WeatherDisplay:10.37,2013-09-15 14:44:00,
2013-09-15 10:49:00,62.6,51.1,30.11,ESE,114,0.0,0.0,66,0.00,CLR,,0.00,WeatherDisplay:10.37,2013-09-15 14:49:00,
2013-09-15 10:54:00,62.9,50.5,30.11,South,188,0.0,0.0,64,0.00,CLR,,0.00,WeatherDisplay:10.37,2013-09-15 14:54:00,
2013-09-15 10:59:00,63.1,51.1,30.11,East,100,2.3,2.3,65,0.00,CLR,,0.00,WeatherDisplay:10.37,2013-09-15 14:59:00,
2013-09-15 11:04:00,63.2,51.6,30.11,SSW,213,6.9,6.9,66,0.00,CLR,,0.00,WeatherDisplay:10.37,2013-09-15 15:04:00,
2013-09-15 11:09:00,63.2,52.9,30.11,SW,216,2.3,2.3,69,0.00,CLR,,0.00,WeatherDisplay:10.37,2013-09-15 15:09:00,
2013-09-15 11:14:00,63.6,54.4,30.11,SSW,206,1.2,0.0,72,0.00,CLR,,0.00,WeatherDisplay:10.37,2013-09-15 15:14:00,
2013-09-15 11:19:00,63.9,56.2,30.11,ENE,78,1.2,1.2,76,0.00,CLR,,0.00,WeatherDisplay:10.37,2013-09-15 15:19:00,
2013-09-15 11:24:00,64.0,54.4,30.11,South,174,1.2,0.0,71,0.00,CLR,,0.00,WeatherDisplay:10.37,2013-09-15 15:24:00,
2013-09-15 11:29:00,64.0,55.2,30.11,ENE,66,1.2,1.2,73,0.00,CLR,,0.00,WeatherDisplay:10.37,2013-09-15 15:29:00,
2013-09-15 11:34:00,63.9,56.2,30.11,SW,230,1.2,1.2,76,0.00,CLR,,0.00,WeatherDisplay:10.37,2013-09-15 15:34:00,
2013-09-15 11:39:00,64.0,55.5,30.11,WSW,250,2.3,2.3,74,0.00,CLR,,0.00,WeatherDisplay:10.37,2013-09-15 15:39:00,
2013-09-15 11:44:00,63.9,55.1,30.11,SSE,164,12.7,12.7,73,0.00,CLR,,0.00,WeatherDisplay:10.37,2013-09-15 15:44:00,
2013-09-15 11:49:00,63.4,55.0,30.10,SSW,193,8.1,8.1,74,0.00,CLR,,0.00,WeatherDisplay:10.37,2013-09-15 15:49:00,
2013-09-15 11:54:00,63.1,54.7,30.10,West,265,2.3,2.3,74,0.00,CLR,,0.00,WeatherDisplay:10.37,2013-09-15 15:54:00,
2013-09-15 11:59:00,63.1,54.7,30.10,ENE,69,0.0,0.4,74,0.00,CLR,,0.00,WeatherDisplay:10.37,2013-09-15 15:59:00,
2013-09-15 12:04:00,63.2,55.5,30.10,NW,305,2.3,2.3,76,0.00,CLR,,0.00,WeatherDisplay:10.37,2013-09-15 16:04:00,
2013-09-15 12:09:00,63.2,55.5,30.10,NNE,25,0.0,0.5,76,0.00,CLR,,0.00,WeatherDisplay:10.37,2013-09-15 16:09:00,
2013-09-15 12:14:00,63.4,56.1,30.10,NW,309,2.3,2.3,77,0.00,CLR,,0.00,WeatherDisplay:10.37,2013-09-15 16:14:00,
2013-09-15 12:19:00,63.6,57.0,30.10,West,268,2.3,0.0,79,0.00,CLR,,0.00,WeatherDisplay:10.37,2013-09-15 16:19:00,
2013-09-15 12:24:00,63.6,57.0,30.10,South,171,0.0,0.0,79,0.00,CLR,,0.00,WeatherDisplay:10.37,2013-09-15 16:24:00,
2013-09-15 12:29:00,63.6,56.3,30.10,WSW,237,2.6,2.6,77,0.00,CLR,,0.00,WeatherDisplay:10.37,2013-09-15 16:29:00,
2013-09-15 12:34:00,63.4,56.1,30.10,NW,304,1.3,1.3,77,0.00,CLR,,0.00,WeatherDisplay:10.37,2013-09-15 16:34:00,
2013-09-15 12:39:00,63.4,56.1,30.10,SW,226,9.2,9.2,77,0.00,CLR,,0.00,WeatherDisplay:10.37,2013-09-15 16:39:00,
2013-09-15 12:44:00,63.4,56.1,30.10,ENE,72,1.2,1.2,77,0.00,CLR,,0.00,WeatherDisplay:10.37,2013-09-15 16:44:00,
2013-09-15 12:49:00,63.4,56.1,30.10,NW,323,1.2,1.2,77,0.00,CLR,,0.00,WeatherDisplay:10.37,2013-09-15 16:49:00,
2013-09-15 12:54:00,63.6,56.6,30.09,North,8,2.3,2.3,78,0.00,CLR,,0.00,WeatherDisplay:10.37,2013-09-15 16:54:00,
2013-09-15 12:59:00,63.2,56.6,30.09,SSW,199,1.2,0.0,79,0.00,CLR,,0.00,WeatherDisplay:10.37,2013-09-15 16:59:00,
2013-09-15 13:04:00,62.7,55.7,30.09,SE,138,2.3,2.3,78,0.00,FEW,,0.00,WeatherDisplay:10.37,2013-09-15 17:04:00,
2013-09-15 13:09:00,62.7,56.8,30.09,West,271,1.2,0.0,81,0.00,FEW,,0.00,WeatherDisplay:10.37,2013-09-15 17:09:00,
2013-09-15 13:14:00,62.9,55.6,30.09,North,354,2.3,2.3,77,0.00,FEW,,0.00,WeatherDisplay:10.37,2013-09-15 17:14:00,
2013-09-15 13:19:00,62.7,55.7,30.09,NW,316,3.5,3.5,78,0.00,FEW,,0.00,WeatherDisplay:10.37,2013-09-15 17:19:00,
2013-09-15 13:24:00,62.7,55.7,30.09,SSW,192,6.9,6.9,78,0.00,FEW,,0.00,WeatherDisplay:10.37,2013-09-15 17:24:00,
2013-09-15 13:29:00,62.9,55.6,30.08,SSE,155,2.3,2.3,77,0.00,FEW,,0.00,WeatherDisplay:10.37,2013-09-15 17:29:00,
2013-09-15 13:34:00,63.2,55.9,30.08,North,349,3.5,3.5,77,0.00,FEW,,0.00,WeatherDisplay:10.37,2013-09-15 17:34:00,
2013-09-15 13:39:00,63.4,55.7,30.08,SE,143,2.3,2.3,76,0.00,FEW,,0.00,WeatherDisplay:10.37,2013-09-15 17:39:00,
2013-09-15 13:44:00,63.6,56.6,30.08,NW,306,0.0,0.0,78,0.00,FEW,,0.00,WeatherDisplay:10.37,2013-09-15 17:44:00,
2013-09-15 13:49:00,63.6,55.5,30.08,SE,128,1.2,1.2,75,0.00,FEW,,0.00,WeatherDisplay:10.37,2013-09-15 17:49:00,
2013-09-15 13:54:00,63.7,55.6,30.08,SSE,155,3.5,3.5,75,0.00,FEW,,0.00,WeatherDisplay:10.37,2013-09-15 17:54:00,
2013-09-15 13:59:00,63.6,55.2,30.08,South,169,3.5,3.5,74,0.00,FEW,,0.00,WeatherDisplay:10.37,2013-09-15 17:59:00,
2013-09-15 14:04:00,63.7,55.6,30.08,SSE,152,1.2,1.2,75,0.00,CLR,,0.00,WeatherDisplay:10.37,2013-09-15 18:04:00,
2013-09-15 14:09:00,63.6,55.2,30.07,SW,220,1.2,1.2,74,0.00,CLR,,0.00,WeatherDisplay:10.37,2013-09-15 18:09:00,
2013-09-15 14:15:00,63.7,54.1,30.08,SW,217,6.9,6.9,71,0.00,CLR,,0.00,WeatherDisplay:10.37,2013-09-15 18:15:00,
2013-09-15 14:20:00,63.7,54.5,30.07,SW,216,1.2,1.2,72,0.00,CLR,,0.00,WeatherDisplay:10.37,2013-09-15 18:20:00,
2013-09-15 14:25:00,63.6,54.0,30.07,SW,215,10.4,10.4,71,0.00,CLR,,0.00,WeatherDisplay:10.37,2013-09-15 18:25:00,
2013-09-15 14:30:00,63.4,54.6,30.07,SSW,203,3.5,3.5,73,0.00,CLR,,0.00,WeatherDisplay:10.37,2013-09-15 18:30:00,
2013-09-15 14:35:00,63.7,55.6,30.07,South,188,8.1,8.1,75,0.00,CLR,,0.00,WeatherDisplay:10.37,2013-09-15 18:35:00,
2013-09-15 14:40:00,64.0,55.5,30.07,SSW,192,6.9,6.9,74,0.00,CLR,,0.00,WeatherDisplay:10.37,2013-09-15 18:40:00,
2013-09-15 14:45:00,63.9,56.9,30.06,East,93,1.3,1.3,78,0.00,CLR,,0.00,WeatherDisplay:10.37,2013-09-15 18:45:00,
2013-09-15 14:50:00,63.7,54.5,30.06,WSW,248,2.3,2.3,72,0.00,CLR,,0.00,WeatherDisplay:10.37,2013-09-15 18:50:00,
2013-09-15 14:55:00,63.7,54.5,30.06,WSW,248,1.2,1.2,72,0.00,CLR,,0.00,WeatherDisplay:10.37,2013-09-15 18:55:00,
2013-09-15 15:00:00,63.9,53.5,30.07,SW,230,3.5,0.0,69,0.00,CLR,,0.00,WeatherDisplay:10.37,2013-09-15 19:00:00,
2013-09-15 15:05:00,64.2,53.4,30.06,SW,224,3.9,3.9,68,0.00,CLR,,0.00,WeatherDisplay:10.37,2013-09-15 19:05:00,
2013-09-15 15:10:00,64.2,53.8,30.06,SW,220,1.2,1.2,69,0.00,CLR,,0.00,WeatherDisplay:10.37,2013-09-15 19:10:00,
2013-09-15 15:15:00,64.0,54.0,30.06,SSW,212,2.6,2.6,70,0.00,CLR,,0.00,WeatherDisplay:10.37,2013-09-15 19:15:00,
2013-09-15 15:18:00,64.0,55.5,30.06,WSW,257,1.2,0.0,74,0.00,CLR,,0.00,WeatherDisplay:10.37,2013-09-15 19:18:00,
2013-09-15 15:23:00,64.0,55.5,30.05,West,280,0.0,0.1,74,0.00,CLR,,0.00,WeatherDisplay:10.37,2013-09-15 19:23:00,
2013-09-15 15:28:00,64.0,55.5,30.05,South,185,0.0,0.0,74,0.00,CLR,,0.00,WeatherDisplay:10.37,2013-09-15 19:28:00,
2013-09-15 15:33:00,63.6,55.2,30.05,South,188,1.2,1.2,74,0.00,CLR,,0.00,WeatherDisplay:10.37,2013-09-15 19:33:00,
2013-09-15 15:38:00,63.2,55.9,30.05,West,267,8.1,8.1,77,0.00,CLR,,0.00,WeatherDisplay:10.37,2013-09-15 19:38:00,
2013-09-15 15:43:00,62.9,54.9,30.05,SSW,200,2.3,2.3,75,0.00,CLR,,0.00,WeatherDisplay:10.37,2013-09-15 19:43:00,
2013-09-15 15:48:00,62.6,53.1,30.04,South,191,1.2,1.2,71,0.00,CLR,,0.00,WeatherDisplay:10.37,2013-09-15 19:48:00,
2013-09-15 15:53:00,62.3,53.2,30.04,SSW,196,1.2,1.2,72,0.00,CLR,,0.00,WeatherDisplay:10.37,2013-09-15 19:53:00,
2013-09-15 15:58:00,62.3,53.9,30.04,South,186,5.8,5.8,74,0.00,CLR,,0.00,WeatherDisplay:10.37,2013-09-15 19:58:00,
2013-09-15 16:03:00,62.3,53.5,30.04,SSE,157,8.1,8.1,73,0.00,CLR,,0.00,WeatherDisplay:10.37,2013-09-15 20:03:00,
2013-09-15 16:08:00,62.1,54.1,30.04,SSW,209,8.1,8.1,75,0.00,CLR,,0.00,WeatherDisplay:10.37,2013-09-15 20:08:00,
2013-09-15 16:13:00,61.8,54.5,30.04,SSW,208,8.1,8.1,77,0.00,CLR,,0.00,WeatherDisplay:10.37,2013-09-15 20:13:00,
2013-09-15 16:18:00,61.5,54.6,30.04,SW,222,6.9,6.9,78,0.00,CLR,,0.00,WeatherDisplay:10.37,2013-09-15 20:18:00,
2013-09-15 16:23:00,61.3,54.7,30.04,South,188,5.8,5.8,79,0.00,CLR,,0.00,WeatherDisplay:10.37,2013-09-15 20:23:00,
2013-09-15 16:28:00,61.5,54.9,30.04,South,188,1.2,1.2,79,0.00,CLR,,0.00,WeatherDisplay:10.37,2013-09-15 20:28:00,
2013-09-15 16:33:00,61.3,54.4,30.04,South,188,1.2,1.2,78,0.00,CLR,,0.00,WeatherDisplay:10.37,2013-09-15 20:33:00,
2013-09-15 16:38:00,61.0,54.4,30.04,South,189,3.5,3.5,79,0.00,CLR,,0.00,WeatherDisplay:10.37,2013-09-15 20:38:00,
2013-09-15 16:43:00,61.0,54.4,30.04,WSW,243,2.3,2.3,79,0.00,CLR,,0.00,WeatherDisplay:10.37,2013-09-15 20:43:00,
2013-09-15 16:48:00,61.0,54.1,30.04,SE,131,8.1,8.1,78,0.00,CLR,,0.00,WeatherDisplay:10.37,2013-09-15 20:48:00,
2013-09-15 16:53:00,61.0,54.1,30.04,East,92,1.2,0.0,78,0.00,CLR,,0.00,WeatherDisplay:10.37,2013-09-15 20:53:00,
2013-09-15 16:58:00,60.7,53.4,30.04,SW,233,2.3,2.3,77,0.00,CLR,,0.00,WeatherDisplay:10.37,2013-09-15 20:58:00,
2013-09-15 17:03:00,60.7,54.1,30.04,South,182,2.3,2.3,79,0.00,CLR,,0.00,WeatherDisplay:10.37,2013-09-15 21:03:00,
2013-09-15 17:08:00,60.5,54.3,30.04,NE,41,1.2,1.2,80,0.00,CLR,,0.00,WeatherDisplay:10.37,2013-09-15 21:08:00,
2013-09-15 17:13:00,60.4,54.5,30.04,SW,223,6.9,6.9,81,0.00,CLR,,0.00,WeatherDisplay:10.37,2013-09-15 21:13:00,
2013-09-15 17:18:00,60.2,54.7,30.03,SSW,213,6.9,6.9,82,0.00,CLR,,0.00,WeatherDisplay:10.37,2013-09-15 21:18:00,
2013-09-15 17:23:00,60.2,54.7,30.03,SSW,210,3.5,3.5,82,0.00,CLR,,0.00,WeatherDisplay:10.37,2013-09-15 21:23:00,
2013-09-15 17:28:00,60.0,54.8,30.03,SSW,210,0.0,0.0,83,0.00,CLR,,0.00,WeatherDisplay:10.37,2013-09-15 21:28:00,
2013-09-15 17:33:00,59.7,55.2,30.03,SSW,212,5.8,5.8,85,0.00,CLR,,0.00,WeatherDisplay:10.37,2013-09-15 21:33:00,
2013-09-15 17:38:00,59.6,55.4,30.03,SSW,212,3.5,3.5,86,0.00,CLR,,0.00,WeatherDisplay:10.37,2013-09-15 21:38:00,
2013-09-15 17:43:00,59.4,55.2,30.03,SSW,212,2.3,2.3,86,0.00,CLR,,0.00,WeatherDisplay:10.37,2013-09-15 21:43:00,
2013-09-15 17:48:00,59.3,55.4,30.03,SSW,212,2.3,2.3,87,0.00,CLR,,0.00,WeatherDisplay:10.37,2013-09-15 21:48:00,
2013-09-15 17:53:00,59.3,55.7,30.03,SSW,212,0.0,0.0,88,0.00,CLR,,0.00,WeatherDisplay:10.37,2013-09-15 21:53:00,
2013-09-15 17:58:00,59.1,55.9,30.03,SSW,212,0.0,0.0,89,0.00,CLR,,0.00,WeatherDisplay:10.37,2013-09-15 21:58:00,
2013-09-15 18:03:00,58.9,56.0,30.02,SSW,212,1.2,0.0,90,0.00,CLR,,0.00,WeatherDisplay:10.37,2013-09-15 22:03:00,
2013-09-15 18:08:00,58.9,56.0,30.03,SSW,212,0.0,0.0,90,0.00,CLR,,0.00,WeatherDisplay:10.37,2013-09-15 22:08:00,
2013-09-15 18:13:00,58.8,55.9,30.03,SSW,212,0.0,0.0,90,0.00,CLR,,0.00,WeatherDisplay:10.37,2013-09-15 22:13:00,
2013-09-15 18:18:00,58.6,55.7,30.03,SSW,212,0.0,0.0,90,0.00,CLR,,0.00,WeatherDisplay:10.37,2013-09-15 22:18:00,
2013-09-15 18:23:00,58.3,55.7,30.03,SSW,212,0.0,0.0,91,0.00,CLR,,0.00,WeatherDisplay:10.37,2013-09-15 22:23:00,
2013-09-15 18:28:00,57.9,55.9,30.03,SSW,212,1.2,0.0,93,0.00,CLR,,0.00,WeatherDisplay:10.37,2013-09-15 22:28:00,
2013-09-15 18:33:00,57.6,55.6,30.03,SSW,212,0.0,0.0,93,0.00,CLR,,0.00,WeatherDisplay:10.37,2013-09-15 22:33:00,
2013-09-15 18:38:00,57.3,55.6,30.03,SSW,212,0.0,0.0,94,0.00,CLR,,0.00,WeatherDisplay:10.37,2013-09-15 22:38:00,
2013-09-15 18:43:00,57.0,55.6,30.02,SSW,212,0.0,0.0,95,0.00,CLR,,0.00,WeatherDisplay:10.37,2013-09-15 22:43:00,
2013-09-15 18:48:00,56.8,55.7,30.03,SSW,212,0.0,0.0,96,0.00,CLR,,0.00,WeatherDisplay:10.37,2013-09-15 22:48:00,
2013-09-15 18:53:00,56.7,55.6,30.03,SSW,212,0.0,0.0,96,0.00,CLR,,0.00,WeatherDisplay:10.37,2013-09-15 22:53:00,
2013-09-15 18:58:00,56.5,55.7,30.02,SSW,212,0.0,0.0,97,0.00,CLR,,0.00,WeatherDisplay:10.37,2013-09-15 22:58:00,
2013-09-15 19:03:00,56.4,55.6,30.02,SSW,212,0.0,0.0,97,0.00,CLR,,0.00,WeatherDisplay:10.37,2013-09-15 23:03:00,
2013-09-15 19:08:00,56.2,55.6,30.03,SSW,212,0.0,0.0,98,0.00,CLR,,0.00,WeatherDisplay:10.37,2013-09-15 23:08:00,
2013-09-15 19:13:00,56.0,55.4,30.02,SSW,212,1.2,0.0,98,0.00,CLR,,0.00,WeatherDisplay:10.37,2013-09-15 23:13:00,
2013-09-15 19:18:00,56.0,55.7,30.02,SSW,212,0.0,0.0,99,0.00,CLR,,0.00,WeatherDisplay:10.37,2013-09-15 23:18:00,
2013-09-15 19:23:00,56.0,55.7,30.03,SSW,212,0.0,0.0,99,0.00,CLR,,0.00,WeatherDisplay:10.37,2013-09-15 23:23:00,
2013-09-15 19:28:00,55.9,55.6,30.03,SSW,212,0.0,0.0,99,0.00,CLR,,0.00,WeatherDisplay:10.37,2013-09-15 23:28:00,
2013-09-15 19:33:00,55.9,55.9,30.03,SSW,212,0.0,0.0,100,0.00,CLR,,0.00,WeatherDisplay:10.37,2013-09-15 23:33:00,
2013-09-15 19:38:00,55.7,55.7,30.03,SSW,212,0.0,0.0,100,0.00,CLR,,0.00,WeatherDisplay:10.37,2013-09-15 23:38:00,
2013-09-15 19:43:00,55.7,55.7,30.03,SSW,212,0.0,0.0,100,0.00,CLR,,0.00,WeatherDisplay:10.37,2013-09-15 23:43:00,
2013-09-15 19:48:00,55.6,55.6,30.03,SSW,212,0.0,0.0,100,0.00,CLR,,0.00,WeatherDisplay:10.37,2013-09-15 23:48:00,
2013-09-15 19:54:00,55.4,55.4,30.03,SSW,212,0.0,0.0,100,0.00,CLR,,0.00,WeatherDisplay:10.37,2013-09-15 23:54:00,
2013-09-15 19:59:00,55.4,55.4,30.03,SSW,212,0.0,0.0,100,0.00,CLR,,0.00,WeatherDisplay:10.37,2013-09-15 23:59:00,
2013-09-15 20:04:00,55.4,55.4,30.03,SSW,212,0.0,0.0,100,0.00,CLR,,0.00,WeatherDisplay:10.37,2013-09-16 00:04:00,
2013-09-15 20:09:00,55.3,55.3,30.03,SSW,212,0.0,0.0,100,0.00,CLR,,0.00,WeatherDisplay:10.37,2013-09-16 00:09:00,
2013-09-15 20:14:00,55.4,55.4,30.02,SSW,212,0.0,0.0,100,0.00,CLR,,0.00,WeatherDisplay:10.37,2013-09-16 00:14:00,
2013-09-15 20:19:00,55.6,55.6,30.03,SSW,212,3.5,3.5,100,0.00,CLR,,0.00,WeatherDisplay:10.37,2013-09-16 00:19:00,
2013-09-15 20:24:00,55.7,55.7,30.02,SSW,212,2.6,2.6,100,0.00,CLR,,0.00,WeatherDisplay:10.37,2013-09-16 00:24:00,
2013-09-15 20:29:00,55.9,55.9,30.02,SSW,212,0.0,0.0,100,0.00,CLR,,0.00,WeatherDisplay:10.37,2013-09-16 00:29:00,
2013-09-15 20:34:00,55.9,55.9,30.03,SSW,212,1.2,1.2,100,0.00,CLR,,0.00,WeatherDisplay:10.37,2013-09-16 00:34:00,
2013-09-15 20:39:00,56.2,56.2,30.02,SSW,208,3.5,3.5,100,0.00,CLR,,0.00,WeatherDisplay:10.37,2013-09-16 00:39:00,
2013-09-15 20:44:00,56.4,56.4,30.03,SSW,213,1.2,1.2,100,0.00,CLR,,0.00,WeatherDisplay:10.37,2013-09-16 00:44:00,
2013-09-15 20:49:00,56.4,56.4,30.02,SSW,213,3.5,3.5,100,0.00,CLR,,0.00,WeatherDisplay:10.37,2013-09-16 00:49:00,
2013-09-15 20:54:00,56.5,56.5,30.03,SSW,213,3.5,3.5,100,0.00,CLR,,0.00,WeatherDisplay:10.37,2013-09-16 00:54:00,
2013-09-15 20:59:00,56.5,56.5,30.02,South,169,1.2,1.2,100,0.00,CLR,,0.00,WeatherDisplay:10.37,2013-09-16 00:59:00,
2013-09-15 21:04:00,56.5,56.5,30.02,SSW,193,3.5,3.5,100,0.00,CLR,,0.00,WeatherDisplay:10.37,2013-09-16 01:04:00,
2013-09-15 21:09:00,56.5,56.5,30.02,SSW,196,3.5,3.5,100,0.00,CLR,,0.00,WeatherDisplay:10.37,2013-09-16 01:09:00,
2013-09-15 21:14:00,56.5,56.5,30.02,SSW,210,0.0,0.0,100,0.00,CLR,,0.00,WeatherDisplay:10.37,2013-09-16 01:14:00,
2013-09-15 21:19:00,56.5,56.5,30.01,SSW,210,0.0,0.0,100,0.00,CLR,,0.00,WeatherDisplay:10.37,2013-09-16 01:19:00,
2013-09-15 21:24:00,56.4,56.4,30.01,SSW,210,0.0,0.0,100,0.00,CLR,,0.00,WeatherDisplay:10.37,2013-09-16 01:24:00,
2013-09-15 21:29:00,56.4,56.4,30.01,SSW,210,3.5,3.5,100,0.00,CLR,,0.00,WeatherDisplay:10.37,2013-09-16 01:29:00,
2013-09-15 21:34:00,56.2,56.2,30.02,SSW,210,1.2,1.2,100,0.00,CLR,,0.00,WeatherDisplay:10.37,2013-09-16 01:34:00,
2013-09-15 21:39:00,56.2,56.2,30.02,SSW,210,1.3,1.3,100,0.00,CLR,,0.00,WeatherDisplay:10.37,2013-09-16 01:39:00,
2013-09-15 21:44:00,56.4,56.4,30.01,SSW,205,0.0,0.0,100,0.00,CLR,,0.00,WeatherDisplay:10.37,2013-09-16 01:44:00,
2013-09-15 21:49:00,56.4,56.4,30.01,SSW,205,0.0,0.0,100,0.00,CLR,,0.00,WeatherDisplay:10.37,2013-09-16 01:49:00,
2013-09-15 21:54:00,56.4,56.4,30.01,SSW,205,2.3,2.3,100,0.00,CLR,,0.00,WeatherDisplay:10.37,2013-09-16 01:54:00,
2013-09-15 21:59:00,56.2,56.2,30.01,SSW,205,2.3,2.3,100,0.00,CLR,,0.00,WeatherDisplay:10.37,2013-09-16 01:59:00,
2013-09-15 22:04:00,56.2,56.2,30.01,SSW,205,1.2,1.2,100,0.00,CLR,,0.00,WeatherDisplay:10.37,2013-09-16 02:04:00,
2013-09-15 22:09:00,56.0,56.0,30.01,SSW,205,2.3,2.3,100,0.00,CLR,,0.00,WeatherDisplay:10.37,2013-09-16 02:09:00,
2013-09-15 22:14:00,56.0,56.0,30.01,SSW,205,1.2,0.0,100,0.00,CLR,,0.00,WeatherDisplay:10.37,2013-09-16 02:14:00,
2013-09-15 22:19:00,56.0,56.0,30.01,SSW,205,1.2,1.2,100,0.00,CLR,,0.00,WeatherDisplay:10.37,2013-09-16 02:19:00,
2013-09-15 22:24:00,55.9,55.9,30.01,SSW,205,0.0,0.0,100,0.00,CLR,,0.00,WeatherDisplay:10.37,2013-09-16 02:24:00,
2013-09-15 22:29:00,55.9,55.9,30.01,SSW,205,0.0,0.0,100,0.00,CLR,,0.00,WeatherDisplay:10.37,2013-09-16 02:29:00,
2013-09-15 22:34:00,55.9,55.9,30.01,SSW,205,1.2,1.2,100,0.00,CLR,,0.00,WeatherDisplay:10.37,2013-09-16 02:34:00,
2013-09-15 22:39:00,55.9,55.9,30.01,SSW,205,0.0,0.0,100,0.00,CLR,,0.00,WeatherDisplay:10.37,2013-09-16 02:39:00,
2013-09-15 22:44:00,55.9,55.9,30.02,SSW,205,0.0,0.0,100,0.00,CLR,,0.00,WeatherDisplay:10.37,2013-09-16 02:44:00,
2013-09-15 22:49:00,55.7,55.7,30.01,SSW,205,0.0,0.0,100,0.00,CLR,,0.00,WeatherDisplay:10.37,2013-09-16 02:49:00,
2013-09-15 22:54:00,55.7,55.7,30.01,SSW,205,0.0,0.0,100,0.00,CLR,,0.00,WeatherDisplay:10.37,2013-09-16 02:54:00,
2013-09-15 22:59:00,55.7,55.7,30.01,SSW,205,0.0,0.0,100,0.00,CLR,,0.00,WeatherDisplay:10.37,2013-09-16 02:59:00,
2013-09-15 23:04:00,55.7,55.7,30.01,SSW,205,0.0,0.0,100,0.00,CLR,,0.00,WeatherDisplay:10.37,2013-09-16 03:04:00,
2013-09-15 23:09:00,55.7,55.7,30.01,SSW,205,0.0,0.0,100,0.00,CLR,,0.00,WeatherDisplay:10.37,2013-09-16 03:09:00,
2013-09-15 23:14:00,55.7,55.7,30.00,SSW,205,0.0,0.0,100,0.00,CLR,,0.00,WeatherDisplay:10.37,2013-09-16 03:14:00,
2013-09-15 23:19:00,55.7,55.7,30.00,SSW,205,0.0,0.0,100,0.00,CLR,,0.00,WeatherDisplay:10.37,2013-09-16 03:19:00,
2013-09-15 23:24:00,55.6,55.6,30.00,SSW,205,0.0,0.0,100,0.00,CLR,,0.00,WeatherDisplay:10.37,2013-09-16 03:24:00,
2013-09-15 23:29:00,55.6,55.6,29.99,SSW,205,0.0,0.0,100,0.00,CLR,,0.00,WeatherDisplay:10.37,2013-09-16 03:29:00,
2013-09-15 23:34:00,55.6,55.6,30.00,SSW,205,0.0,0.0,100,0.00,CLR,,0.00,WeatherDisplay:10.37,2013-09-16 03:34:00,
2013-09-15 23:39:00,55.4,55.4,30.00,SSW,205,0.0,0.0,100,0.00,CLR,,0.00,WeatherDisplay:10.37,2013-09-16 03:39:00,
2013-09-15 23:44:00,55.6,55.6,30.01,SSW,205,3.5,3.5,100,0.00,CLR,,0.00,WeatherDisplay:10.37,2013-09-16 03:44:00,
2013-09-15 23:49:00,55.6,55.6,30.01,SSW,205,0.0,0.0,100,0.00,CLR,,0.00,WeatherDisplay:10.37,2013-09-16 03:49:00,
2013-09-15 23:54:00,55.6,55.6,30.00,SSW,205,0.0,0.0,100,0.00,CLR,,0.00,WeatherDisplay:10.37,2013-09-16 03:54:00,
2013-09-15 23:59:00,55.4,55.4,30.00,SSW,205,1.2,0.0,100,0.00,CLR,,0.00,WeatherDisplay:10.37,2013-09-16 03:59:00,